createdAt,value
2024-01-15T00:00:57.977Z,93449.00
2024-01-15T00:01:57.756Z,93444.00
2024-01-15T00:02:57.757Z,93439.00
2024-01-15T00:03:57.866Z,93442.00
2024-01-15T00:04:57.853Z,93445.00
2024-01-15T00:05:57.959Z,93443.00
2024-01-15T00:06:57.961Z,93443.00
2024-01-15T00:07:57.901Z,93444.00
2024-01-15T00:08:57.969Z,93438.00
2024-01-15T00:09:58.064Z,93428.00
2024-01-15T00:10:58.072Z,93430.00
2024-01-15T00:11:58.138Z,93435.00
2024-01-15T00:12:58.229Z,93438.00
2024-01-15T00:13:58.302Z,93433.00
2024-01-15T00:14:58.447Z,93430.00
2024-01-15T00:15:58.487Z,93428.00
2024-01-15T00:16:58.543Z,93425.00
2024-01-15T00:17:58.611Z,93427.00
2024-01-15T00:18:58.657Z,93431.00
2024-01-15T00:19:58.759Z,93435.00
2024-01-15T00:20:58.748Z,93439.00
2024-01-15T00:21:58.820Z,93437.00
2024-01-15T00:22:58.869Z,93436.00
2024-01-15T00:23:58.928Z,93425.00
2024-01-15T00:24:58.991Z,93416.00
2024-01-15T00:25:59.097Z,93409.00
2024-01-15T00:26:59.167Z,93404.00
2024-01-15T00:27:59.270Z,93400.00
2024-01-15T00:28:59.333Z,93402.00
2024-01-15T00:29:59.330Z,93405.00
2024-01-15T00:30:59.541Z,93401.00
2024-01-15T00:31:59.495Z,93406.00
2024-01-15T00:32:59.692Z,93412.00
2024-01-15T00:33:59.971Z,93413.00
2024-01-15T00:34:59.721Z,93410.00
2024-01-15T00:35:59.797Z,93410.00
2024-01-15T00:36:59.864Z,93409.00
2024-01-15T00:37:59.902Z,93407.00
2024-01-15T00:38:59.961Z,93400.00
2024-01-15T00:40:00.039Z,93390.00
2024-01-15T00:41:00.178Z,93387.00
2024-01-15T00:42:00.243Z,93384.00
2024-01-15T00:43:00.206Z,93380.00
2024-01-15T00:44:00.250Z,93380.00
2024-01-15T00:45:00.392Z,93381.00
2024-01-15T00:46:00.419Z,93384.00
2024-01-15T00:47:00.552Z,93388.00
2024-01-15T00:48:00.707Z,93386.00
2024-01-15T00:49:00.806Z,93383.00
2024-01-15T00:50:00.708Z,93378.00
2024-01-15T00:51:00.766Z,93378.00
2024-01-15T00:52:00.810Z,93379.00
2024-01-15T00:53:00.869Z,93376.00
2024-01-15T00:54:00.979Z,93378.00
2024-01-15T00:55:01.046Z,93377.00
2024-01-15T00:56:01.045Z,93380.00
2024-01-15T00:57:01.182Z,93382.00
2024-01-15T00:58:01.234Z,93382.00
2024-01-15T00:59:01.280Z,93375.00
2024-01-15T01:00:03.904Z,93368.00
2024-01-15T01:01:01.369Z,93368.00
2024-01-15T01:02:01.295Z,93368.00
2024-01-15T01:03:01.401Z,93364.00
2024-01-15T01:04:01.402Z,93364.00
2024-01-15T01:05:01.376Z,93372.00
2024-01-15T01:06:01.341Z,93376.00
2024-01-15T01:07:01.293Z,93378.00
2024-01-15T01:08:01.274Z,93376.00
2024-01-15T01:09:01.302Z,93375.00
2024-01-15T01:10:01.348Z,93375.00
2024-01-15T01:11:01.301Z,93373.00
2024-01-15T01:12:01.316Z,93371.00
2024-01-15T01:13:01.270Z,93372.00
2024-01-15T01:14:01.281Z,93366.00
2024-01-15T01:15:01.643Z,93363.00
2024-01-15T01:16:01.308Z,93361.00
2024-01-15T01:17:01.405Z,93359.00
2024-01-15T01:18:01.568Z,93362.00
2024-01-15T01:19:01.696Z,93363.00
2024-01-15T01:20:01.804Z,93361.00
2024-01-15T01:21:01.521Z,93365.00
2024-01-15T01:22:01.578Z,93365.00
2024-01-15T01:23:01.642Z,93364.00
2024-01-15T01:24:01.666Z,93361.00
2024-01-15T01:25:01.717Z,93355.00
2024-01-15T01:26:01.769Z,93360.00
2024-01-15T01:27:01.777Z,93363.00
2024-01-15T01:28:02.017Z,93366.00
2024-01-15T01:29:01.949Z,93367.00
2024-01-15T01:30:01.938Z,93366.00
2024-01-15T01:31:02.112Z,93371.00
2024-01-15T01:32:02.064Z,93369.00
2024-01-15T01:33:02.146Z,93371.00
2024-01-15T01:34:02.303Z,93366.00
2024-01-15T01:35:02.266Z,93364.00
2024-01-15T01:36:02.305Z,93366.00
2024-01-15T01:37:02.366Z,93373.00
2024-01-15T01:38:02.356Z,93373.00
2024-01-15T01:39:02.429Z,93367.00
2024-01-15T01:40:02.499Z,93365.00
2024-01-15T01:41:02.583Z,93360.00
2024-01-15T01:42:02.620Z,93360.00
2024-01-15T01:43:02.662Z,93358.00
2024-01-15T01:44:02.685Z,93360.00
2024-01-15T01:45:02.757Z,93357.00
2024-01-15T01:46:02.833Z,93355.00
2024-01-15T01:47:02.808Z,93354.00
2024-01-15T01:48:02.881Z,93351.00
2024-01-15T01:49:02.846Z,93347.00
2024-01-15T01:50:02.862Z,93351.00
2024-01-15T01:51:02.994Z,93359.00
2024-01-15T01:52:02.919Z,93360.00
2024-01-15T01:53:02.934Z,93359.00
2024-01-15T01:54:02.932Z,93353.00
2024-01-15T01:55:03.010Z,93348.00
2024-01-15T01:56:03.003Z,93344.00
2024-01-15T01:57:03.020Z,93345.00
2024-01-15T01:58:03.055Z,93345.00
2024-01-15T01:59:03.061Z,93348.00
2024-01-15T02:00:03.082Z,93348.00
2024-01-15T02:01:03.413Z,93350.00
2024-01-15T02:02:03.172Z,93345.00
2024-01-15T02:03:03.184Z,93339.00
2024-01-15T02:04:03.355Z,93336.00
2024-01-15T02:05:03.329Z,93343.00
2024-01-15T02:06:03.323Z,93345.00
2024-01-15T02:07:03.364Z,93346.00
2024-01-15T02:08:03.326Z,93344.00
2024-01-15T02:09:03.357Z,93337.00
2024-01-15T02:10:03.346Z,93337.00
2024-01-15T02:11:03.426Z,93336.00
2024-01-15T02:12:03.467Z,93338.00
2024-01-15T02:13:03.478Z,93339.00
2024-01-15T02:14:03.491Z,93341.00
2024-01-15T02:15:03.567Z,93342.00
2024-01-15T02:16:03.550Z,93346.00
2024-01-15T02:17:03.552Z,93345.00
2024-01-15T02:18:03.642Z,93346.00
2024-01-15T02:19:03.716Z,93345.00
2024-01-15T02:20:03.688Z,93348.00
2024-01-15T02:21:04.012Z,93344.00
2024-01-15T02:22:03.705Z,93342.00
2024-01-15T02:23:03.741Z,93344.00
2024-01-15T02:24:03.746Z,93343.00
2024-01-15T02:25:03.755Z,93344.00
2024-01-15T02:26:03.819Z,93345.00
2024-01-15T02:27:03.775Z,93345.00
2024-01-15T02:28:03.828Z,93345.00
2024-01-15T02:29:03.831Z,93351.00
2024-01-15T02:30:04.095Z,93357.00
2024-01-15T02:31:04.050Z,93353.00
2024-01-15T02:32:03.895Z,93351.00
2024-01-15T02:33:03.934Z,93351.00
2024-01-15T02:34:04.197Z,93348.00
2024-01-15T02:35:03.937Z,93347.00
2024-01-15T02:36:03.934Z,93342.00
2024-01-15T02:37:03.997Z,93338.00
2024-01-15T02:38:03.946Z,93334.00
2024-01-15T02:39:04.046Z,93334.00
2024-01-15T02:40:04.012Z,93338.00
2024-01-15T02:41:04.031Z,93344.00
2024-01-15T02:42:04.085Z,93345.00
2024-01-15T02:43:04.044Z,93345.00
2024-01-15T02:44:04.043Z,93347.00
2024-01-15T02:45:04.043Z,93348.00
2024-01-15T02:46:04.116Z,93342.00
2024-01-15T02:47:04.133Z,93339.00
2024-01-15T02:48:04.166Z,93340.00
2024-01-15T02:49:04.339Z,93340.00
2024-01-15T02:50:04.265Z,93343.00
2024-01-15T02:51:04.185Z,93340.00
2024-01-15T02:52:04.209Z,93340.00
2024-01-15T02:53:04.227Z,93344.00
2024-01-15T02:54:04.272Z,93348.00
2024-01-15T02:55:04.271Z,93345.00
2024-01-15T02:56:04.358Z,93339.00
2024-01-15T02:57:04.337Z,93336.00
2024-01-15T02:58:04.351Z,93335.00
2024-01-15T02:59:04.342Z,93339.00
2024-01-15T03:00:04.391Z,93340.00
2024-01-15T03:01:04.483Z,93342.00
2024-01-15T03:02:04.371Z,93343.00
2024-01-15T03:03:04.546Z,93341.00
2024-01-15T03:04:04.612Z,93338.00
2024-01-15T03:05:04.458Z,93338.00
2024-01-15T03:06:04.473Z,93342.00
2024-01-15T03:07:04.394Z,93343.00
2024-01-15T03:08:04.401Z,93345.00
2024-01-15T03:09:04.422Z,93345.00
2024-01-15T03:10:04.429Z,93346.00
2024-01-15T03:11:04.438Z,93341.00
2024-01-15T03:12:04.466Z,93340.00
2024-01-15T03:13:04.412Z,93340.00
2024-01-15T03:14:04.454Z,93341.00
2024-01-15T03:15:04.498Z,93342.00
2024-01-15T03:16:04.501Z,93342.00
2024-01-15T03:17:04.536Z,93343.00
2024-01-15T03:18:04.615Z,93345.00
2024-01-15T03:19:04.628Z,93347.00
2024-01-15T03:20:04.665Z,93348.00
2024-01-15T03:21:04.553Z,93352.00
2024-01-15T03:22:04.582Z,93353.00
2024-01-15T03:23:04.585Z,93348.00
2024-01-15T03:24:04.598Z,93350.00
2024-01-15T03:25:04.564Z,93351.00
2024-01-15T03:26:04.586Z,93352.00
2024-01-15T03:27:04.593Z,93346.00
2024-01-15T03:28:04.629Z,93347.00
2024-01-15T03:29:04.654Z,93348.00
2024-01-15T03:30:04.687Z,93346.00
2024-01-15T03:31:04.743Z,93343.00
2024-01-15T03:32:04.656Z,93341.00
2024-01-15T03:33:04.718Z,93338.00
2024-01-15T03:34:04.811Z,93338.00
2024-01-15T03:35:04.789Z,93336.00
2024-01-15T03:36:04.721Z,93339.00
2024-01-15T03:37:04.742Z,93346.00
2024-01-15T03:38:04.719Z,93346.00
2024-01-15T03:39:04.785Z,93350.00
2024-01-15T03:40:04.786Z,93348.00
2024-01-15T03:41:04.745Z,93346.00
2024-01-15T03:42:04.816Z,93343.00
2024-01-15T03:43:04.764Z,93342.00
2024-01-15T03:44:04.770Z,93341.00
2024-01-15T03:45:04.827Z,93343.00
2024-01-15T03:46:04.829Z,93341.00
2024-01-15T03:47:04.838Z,93343.00
2024-01-15T03:48:04.957Z,93342.00
2024-01-15T03:49:04.919Z,93339.00
2024-01-15T03:50:04.856Z,93340.00
2024-01-15T03:51:04.866Z,93340.00
2024-01-15T03:52:04.870Z,93341.00
2024-01-15T03:53:04.887Z,93346.00
2024-01-15T03:54:04.887Z,93347.00
2024-01-15T03:55:04.921Z,93346.00
2024-01-15T03:56:04.883Z,93346.00
2024-01-15T03:57:04.973Z,93342.00
2024-01-15T03:58:04.998Z,93339.00
2024-01-15T03:59:05.557Z,93341.00
2024-01-15T04:00:04.967Z,93345.00
2024-01-15T04:01:05.126Z,93350.00
2024-01-15T04:02:04.979Z,93352.00
2024-01-15T04:03:05.149Z,93352.00
2024-01-15T04:04:05.140Z,93349.00
2024-01-15T04:05:05.038Z,93351.00
2024-01-15T04:06:05.107Z,93351.00
2024-01-15T04:07:05.099Z,93355.00
2024-01-15T04:08:05.103Z,93352.00
2024-01-15T04:09:05.162Z,93353.00
2024-01-15T04:10:05.086Z,93351.00
2024-01-15T04:11:05.090Z,93352.00
2024-01-15T04:12:05.092Z,93354.00
2024-01-15T04:13:05.136Z,93357.00
2024-01-15T04:14:05.108Z,93359.00
2024-01-15T04:15:05.133Z,93357.00
2024-01-15T04:16:05.116Z,93355.00
2024-01-15T04:17:12.929Z,93348.00
2024-01-15T04:18:12.971Z,93348.00
2024-01-15T04:19:12.965Z,93348.00
2024-01-15T04:20:12.907Z,93352.00
2024-01-15T04:21:12.928Z,93353.00
2024-01-15T04:22:12.895Z,93354.00
2024-01-15T04:23:12.926Z,93351.00
2024-01-15T04:24:12.948Z,93351.00
2024-01-15T04:25:52.297Z,93350.00
2024-01-15T04:26:52.298Z,93352.00
2024-01-15T04:27:52.353Z,93349.00
2024-01-15T04:28:52.265Z,93356.00
2024-01-15T04:29:52.270Z,93352.00
2024-01-15T04:30:52.381Z,93352.00
2024-01-15T04:32:00.196Z,93348.00
2024-01-15T04:33:00.197Z,93350.00
2024-01-15T04:34:00.209Z,93350.00
2024-01-15T04:35:00.113Z,93352.00
2024-01-15T04:36:00.104Z,93354.00
2024-01-15T04:37:00.667Z,93354.00
2024-01-15T04:38:00.149Z,93356.00
2024-01-15T04:39:00.113Z,93357.00
2024-01-15T04:40:00.286Z,93359.00
2024-01-15T04:41:00.161Z,93360.00
2024-01-15T04:42:00.069Z,93361.00
2024-01-15T04:43:00.164Z,93362.00
2024-01-15T04:44:00.143Z,93358.00
2024-01-15T04:45:00.191Z,93358.00
2024-01-15T04:46:00.216Z,93357.00
2024-01-15T04:47:00.693Z,93359.00
2024-01-15T04:48:00.190Z,93361.00
2024-01-15T04:49:00.246Z,93359.00
2024-01-15T04:50:00.288Z,93364.00
2024-01-15T04:51:00.108Z,93363.00
2024-01-15T04:52:00.163Z,93367.00
2024-01-15T04:53:00.194Z,93369.00
2024-01-15T04:54:00.223Z,93366.00
2024-01-15T04:55:00.155Z,93369.00
2024-01-15T04:56:00.243Z,93369.00
2024-01-15T04:57:00.198Z,93368.00
2024-01-15T04:58:00.171Z,93369.00
2024-01-15T04:59:00.271Z,93373.00
2024-01-15T05:00:00.181Z,93376.00
2024-01-15T05:01:00.350Z,93464.00
2024-01-15T05:02:00.188Z,93462.00
2024-01-15T05:03:00.263Z,93459.00
2024-01-15T05:04:00.649Z,93459.00
2024-01-15T05:05:00.232Z,93457.00
2024-01-15T05:06:00.312Z,93454.00
2024-01-15T05:07:00.213Z,93453.00
2024-01-15T05:08:00.189Z,93457.00
2024-01-15T05:09:00.220Z,93459.00
2024-01-15T05:10:00.379Z,93458.00
2024-01-15T05:11:00.196Z,93456.00
2024-01-15T05:12:00.280Z,93455.00
2024-01-15T05:13:00.212Z,93453.00
2024-01-15T05:14:00.206Z,93447.00
2024-01-15T05:15:00.342Z,93442.00
2024-01-15T05:16:00.337Z,93440.00
2024-01-15T05:17:00.196Z,93442.00
2024-01-15T05:18:00.391Z,93444.00
2024-01-15T05:19:00.309Z,93448.00
2024-01-15T05:20:00.698Z,93444.00
2024-01-15T05:21:00.239Z,93443.00
2024-01-15T05:22:00.225Z,93436.00
2024-01-15T05:23:00.175Z,93435.00
2024-01-15T05:24:00.229Z,93439.00
2024-01-15T05:25:00.371Z,93445.00
2024-01-15T05:26:00.182Z,93450.00
2024-01-15T05:27:00.195Z,93452.00
2024-01-15T05:28:00.209Z,93453.00
2024-01-15T05:29:00.221Z,93454.00
2024-01-15T05:30:00.274Z,93453.00
2024-01-15T05:31:00.321Z,93351.00
2024-01-15T05:32:02.574Z,93351.00
2024-01-15T05:33:00.378Z,93356.00
2024-01-15T05:34:00.230Z,93359.00
2024-01-15T05:35:00.384Z,93362.00
2024-01-15T05:36:00.267Z,93362.00
2024-01-15T05:37:00.222Z,93368.00
2024-01-15T05:38:00.239Z,93370.00
2024-01-15T05:39:00.229Z,93378.00
2024-01-15T05:40:00.501Z,93382.00
2024-01-15T05:41:00.249Z,93381.00
2024-01-15T05:42:00.227Z,93380.00
2024-01-15T05:43:00.319Z,93384.00
2024-01-15T05:44:00.246Z,93382.00
2024-01-15T05:45:00.275Z,93382.00
2024-01-15T05:46:00.313Z,93381.00
2024-01-15T05:47:00.318Z,93388.00
2024-01-15T05:48:00.406Z,93387.00
2024-01-15T05:49:00.446Z,93389.00
2024-01-15T05:50:00.351Z,93387.00
2024-01-15T05:51:00.268Z,93386.00
2024-01-15T05:52:00.252Z,93381.00
2024-01-15T05:53:00.314Z,93377.00
2024-01-15T05:54:00.223Z,93377.00
2024-01-15T05:55:00.275Z,93378.00
2024-01-15T05:56:00.235Z,93378.00
2024-01-15T05:57:00.238Z,93377.00
2024-01-15T05:58:00.353Z,93374.00
2024-01-15T05:59:00.266Z,93374.00
2024-01-15T06:00:00.430Z,93377.00
2024-01-15T06:01:00.402Z,93384.00
2024-01-15T06:02:00.286Z,93390.00
2024-01-15T06:03:00.258Z,93397.00
2024-01-15T06:04:00.496Z,93395.00
2024-01-15T06:05:00.424Z,93391.00
2024-01-15T06:06:00.315Z,93386.00
2024-01-15T06:07:00.278Z,93384.00
2024-01-15T06:08:00.340Z,93469.00
2024-01-15T06:09:00.267Z,93475.00
2024-01-15T06:10:00.393Z,93478.00
2024-01-15T06:11:02.211Z,93478.00
2024-01-15T06:12:00.293Z,93476.00
2024-01-15T06:13:00.345Z,93473.00
2024-01-15T06:14:00.282Z,93471.00
2024-01-15T06:15:00.358Z,93473.00
2024-01-15T06:16:00.463Z,93476.00
2024-01-15T06:17:00.495Z,93481.00
2024-01-15T06:18:00.716Z,93483.00
2024-01-15T06:19:00.830Z,93485.00
2024-01-15T06:20:00.678Z,93486.00
2024-01-15T06:21:00.636Z,93480.00
2024-01-15T06:22:01.002Z,93475.00
2024-01-15T06:23:00.778Z,93473.00
2024-01-15T06:24:00.836Z,93474.00
2024-01-15T06:25:00.806Z,93477.00
2024-01-15T06:26:00.842Z,93480.00
2024-01-15T06:27:00.888Z,93487.00
2024-01-15T06:28:01.017Z,93479.00
2024-01-15T06:29:00.978Z,93482.00
2024-01-15T06:30:01.009Z,93474.00
2024-01-15T06:31:01.156Z,93469.00
2024-01-15T06:32:01.138Z,93469.00
2024-01-15T06:33:01.200Z,93472.00
2024-01-15T06:34:01.258Z,93473.00
2024-01-15T06:35:01.224Z,93479.00
2024-01-15T06:36:01.232Z,93475.00
2024-01-15T06:37:01.396Z,93476.00
2024-01-15T06:38:01.395Z,93470.00
2024-01-15T06:39:01.295Z,93473.00
2024-01-15T06:40:01.468Z,93475.00
2024-01-15T06:41:01.337Z,93478.00
2024-01-15T06:42:01.715Z,93482.00
2024-01-15T06:43:01.416Z,93480.00
2024-01-15T06:44:01.390Z,93484.00
2024-01-15T06:45:01.405Z,93477.00
2024-01-15T06:46:04.219Z,93472.00
2024-01-15T06:47:02.536Z,93470.00
2024-01-15T06:48:01.568Z,93474.00
2024-01-15T06:49:01.962Z,93481.00
2024-01-15T06:50:02.195Z,93481.00
2024-01-15T06:51:02.710Z,93486.00
2024-01-15T06:52:02.335Z,93482.00
2024-01-15T06:53:01.464Z,93478.00
2024-01-15T06:54:01.445Z,93476.00
2024-01-15T06:55:01.607Z,93473.00
2024-01-15T06:56:01.732Z,93480.00
2024-01-15T06:57:01.476Z,93487.00
2024-01-15T06:58:01.891Z,93494.00
2024-01-15T06:59:01.521Z,93494.00
2024-01-15T07:00:01.562Z,93489.00
2024-01-15T07:01:01.684Z,93483.00
2024-01-15T07:02:01.617Z,93472.00
2024-01-15T07:03:01.876Z,93473.00
2024-01-15T07:04:01.698Z,93477.00
2024-01-15T07:05:04.347Z,93476.00
2024-01-15T07:06:01.738Z,93480.00
2024-01-15T07:07:01.773Z,93486.00
2024-01-15T07:08:03.297Z,93495.00
2024-01-15T07:09:01.788Z,93489.00
2024-01-15T07:10:02.284Z,93487.00
2024-01-15T07:11:01.820Z,93487.00
2024-01-15T07:12:01.784Z,93482.00
2024-01-15T07:13:01.787Z,93483.00
2024-01-15T07:14:02.261Z,93485.00
2024-01-15T07:15:01.847Z,93484.00
2024-01-15T07:16:01.840Z,93486.00
2024-01-15T07:17:01.817Z,93489.00
2024-01-15T07:18:02.312Z,93491.00
2024-01-15T07:19:01.838Z,93497.00
2024-01-15T07:20:02.427Z,93500.00
2024-01-15T07:21:01.791Z,93498.00
2024-01-15T07:22:01.820Z,93498.00
2024-01-15T07:23:01.786Z,93500.00
2024-01-15T07:24:02.118Z,93495.00
2024-01-15T07:25:02.920Z,93494.00
2024-01-15T07:26:03.056Z,93489.00
2024-01-15T07:27:01.830Z,93488.00
2024-01-15T07:28:02.253Z,93491.00
2024-01-15T07:29:01.802Z,93488.00
2024-01-15T07:30:02.685Z,93485.00
2024-01-15T07:31:01.809Z,93485.00
2024-01-15T07:32:01.855Z,93491.00
2024-01-15T07:33:02.009Z,93488.00
2024-01-15T07:34:02.051Z,93488.00
2024-01-15T07:35:01.883Z,93490.00
2024-01-15T07:36:03.633Z,93489.00
2024-01-15T07:37:02.341Z,93489.00
2024-01-15T07:38:01.800Z,93489.00
2024-01-15T07:39:01.867Z,93493.00
2024-01-15T07:40:02.362Z,93494.00
2024-01-15T07:41:01.907Z,93492.00
2024-01-15T07:42:02.348Z,93495.00
2024-01-15T07:43:02.134Z,93494.00
2024-01-15T07:44:02.143Z,93492.00
2024-01-15T07:45:02.129Z,93493.00
2024-01-15T07:46:02.225Z,93492.00
2024-01-15T07:47:02.377Z,93492.00
2024-01-15T07:48:02.346Z,93493.00
2024-01-15T07:49:02.909Z,93497.00
2024-01-15T07:50:05.719Z,93499.00
2024-01-15T07:51:03.084Z,93503.00
2024-01-15T07:52:02.517Z,93501.00
2024-01-15T07:53:02.314Z,93503.00
2024-01-15T07:54:02.305Z,93501.00
2024-01-15T07:55:02.573Z,93503.00
2024-01-15T07:56:03.562Z,93499.00
2024-01-15T07:57:02.354Z,93498.00
2024-01-15T07:58:11.393Z,93498.00
2024-01-15T07:59:03.887Z,93498.00
2024-01-15T08:00:03.124Z,93499.00
2024-01-15T08:01:02.464Z,93497.00
2024-01-15T08:02:02.469Z,93501.00
2024-01-15T08:03:02.273Z,93501.00
2024-01-15T08:04:02.899Z,93502.00
2024-01-15T08:05:04.395Z,93500.00
2024-01-15T08:06:02.512Z,93502.00
2024-01-15T08:07:05.414Z,93502.00
2024-01-15T08:08:02.310Z,93501.00
2024-01-15T08:09:02.297Z,93498.00
2024-01-15T08:10:03.862Z,93497.00
2024-01-15T08:11:02.312Z,93501.00
2024-01-15T08:12:02.298Z,93503.00
2024-01-15T08:13:03.207Z,93503.00
2024-01-15T08:14:02.387Z,93502.00
2024-01-15T08:15:02.755Z,93503.00
2024-01-15T08:16:02.321Z,93505.00
2024-01-15T08:17:02.479Z,93504.00
2024-01-15T08:18:06.871Z,93501.00
2024-01-15T08:19:04.934Z,93495.00
2024-01-15T08:20:03.227Z,93493.00
2024-01-15T08:21:04.400Z,93489.00
2024-01-15T08:22:02.290Z,93489.00
2024-01-15T08:23:02.427Z,93488.00
2024-01-15T08:24:02.422Z,93490.00
2024-01-15T08:25:03.033Z,93495.00
2024-01-15T08:26:02.326Z,93501.00
2024-01-15T08:27:02.730Z,93503.00
2024-01-15T08:28:02.334Z,93502.00
2024-01-15T08:29:03.914Z,93500.00
2024-01-15T08:30:02.978Z,93494.00
2024-01-15T08:31:02.901Z,93489.00
2024-01-15T08:32:02.451Z,93487.00
2024-01-15T08:33:08.498Z,93487.00
2024-01-15T08:34:03.504Z,93493.00
2024-01-15T08:35:02.550Z,93495.00
2024-01-15T08:36:02.389Z,93497.00
2024-01-15T08:37:02.908Z,93499.00
2024-01-15T08:38:02.401Z,93498.00
2024-01-15T08:39:02.319Z,93502.00
2024-01-15T08:40:02.393Z,93499.00
2024-01-15T08:41:02.422Z,93497.00
2024-01-15T08:42:02.360Z,93497.00
2024-01-15T08:43:02.294Z,93496.00
2024-01-15T08:44:03.348Z,93498.00
2024-01-15T08:45:03.348Z,93499.00
2024-01-15T08:46:03.512Z,93500.00
2024-01-15T08:47:04.756Z,93499.00
2024-01-15T08:48:02.484Z,93496.00
2024-01-15T08:49:04.972Z,93497.00
2024-01-15T08:50:02.436Z,93501.00
2024-01-15T08:51:02.380Z,93504.00
2024-01-15T08:52:02.897Z,93508.00
2024-01-15T08:53:02.806Z,93511.00
2024-01-15T08:54:02.623Z,93509.00
2024-01-15T08:55:02.584Z,93510.00
2024-01-15T08:56:02.434Z,93510.00
2024-01-15T08:57:02.970Z,93504.00
2024-01-15T08:58:03.446Z,93501.00
2024-01-15T08:59:03.527Z,93499.00
2024-01-15T09:00:05.265Z,93496.00
2024-01-15T09:01:03.641Z,93499.00
2024-01-15T09:02:02.862Z,93501.00
2024-01-15T09:03:02.378Z,93503.00
2024-01-15T09:04:05.235Z,93504.00
2024-01-15T09:05:03.564Z,93503.00
2024-01-15T09:06:02.498Z,93501.00
2024-01-15T09:07:06.875Z,93500.00
2024-01-15T09:08:02.509Z,93494.00
2024-01-15T09:09:02.419Z,93487.00
2024-01-15T09:10:03.896Z,93483.00
2024-01-15T09:11:06.176Z,93481.00
2024-01-15T09:12:04.902Z,93479.00
2024-01-15T09:13:04.165Z,93482.00
2024-01-15T09:14:02.488Z,93480.00
2024-01-15T09:15:05.844Z,93484.00
2024-01-15T09:16:02.734Z,93487.00
2024-01-15T09:17:02.818Z,93489.00
2024-01-15T09:18:05.442Z,93491.00
2024-01-15T09:19:03.972Z,93494.00
2024-01-15T09:20:07.984Z,93494.00
2024-01-15T09:21:04.451Z,93490.00
2024-01-15T09:22:05.479Z,93490.00
2024-01-15T09:23:02.620Z,93492.00
2024-01-15T09:24:02.623Z,93493.00
2024-01-15T09:25:04.922Z,93494.00
2024-01-15T09:26:02.651Z,93495.00
2024-01-15T09:27:03.180Z,93502.00
2024-01-15T09:28:02.571Z,93501.00
2024-01-15T09:29:02.551Z,93501.00
2024-01-15T09:30:02.622Z,93497.00
2024-01-15T09:31:02.660Z,93495.00
2024-01-15T09:32:02.642Z,93496.00
2024-01-15T09:33:02.707Z,93492.00
2024-01-15T09:34:02.692Z,93496.00
2024-01-15T09:35:02.576Z,93504.00
2024-01-15T09:36:02.893Z,93500.00
2024-01-15T09:37:02.520Z,93502.00
2024-01-15T09:38:02.535Z,93499.00
2024-01-15T09:39:02.649Z,93497.00
2024-01-15T09:40:02.635Z,93495.00
2024-01-15T09:41:02.677Z,93494.00
2024-01-15T09:42:04.492Z,93494.00
2024-01-15T09:43:05.700Z,93492.00
2024-01-15T09:44:02.605Z,93490.00
2024-01-15T09:45:06.258Z,93497.00
2024-01-15T09:46:02.774Z,93493.00
2024-01-15T09:47:04.502Z,93499.00
2024-01-15T09:48:02.663Z,93501.00
2024-01-15T09:49:02.753Z,93499.00
2024-01-15T09:50:02.619Z,93499.00
2024-01-15T09:51:02.810Z,93497.00
2024-01-15T09:52:06.391Z,93497.00
2024-01-15T09:53:04.451Z,93497.00
2024-01-15T09:54:02.623Z,93495.00
2024-01-15T09:55:02.908Z,93492.00
2024-01-15T09:56:05.374Z,93489.00
2024-01-15T09:57:03.343Z,93482.00
2024-01-15T09:58:02.672Z,93483.00
2024-01-15T09:59:04.329Z,93479.00
2024-01-15T10:00:03.738Z,93481.00
2024-01-15T10:01:06.113Z,93482.00
2024-01-15T10:02:03.639Z,93483.00
2024-01-15T10:03:02.716Z,93484.00
2024-01-15T10:04:03.125Z,93484.00
2024-01-15T10:05:03.038Z,93485.00
2024-01-15T10:06:02.674Z,93480.00
2024-01-15T10:07:04.570Z,93479.00
2024-01-15T10:08:02.605Z,93476.00
2024-01-15T10:09:02.708Z,93472.00
2024-01-15T10:10:03.676Z,93468.00
2024-01-15T10:11:02.708Z,93468.00
2024-01-15T10:12:02.944Z,93474.00
2024-01-15T10:13:02.822Z,93471.00
2024-01-15T10:14:03.276Z,93472.00
2024-01-15T10:15:02.885Z,93465.00
2024-01-15T10:16:02.721Z,93466.00
2024-01-15T10:17:02.876Z,93463.00
2024-01-15T10:18:02.924Z,93461.00
2024-01-15T10:19:04.270Z,93465.00
2024-01-15T10:20:02.975Z,93459.00
2024-01-15T10:21:03.325Z,93456.00
2024-01-15T10:22:03.856Z,93448.00
2024-01-15T10:23:03.340Z,93447.00
2024-01-15T10:24:03.024Z,93444.00
2024-01-15T10:25:03.061Z,93441.00
2024-01-15T10:26:03.099Z,93438.00
2024-01-15T10:27:03.877Z,93436.00
2024-01-15T10:28:04.096Z,93436.00
2024-01-15T10:29:03.253Z,93432.00
2024-01-15T10:30:03.382Z,93432.00
2024-01-15T10:31:03.535Z,93431.00
2024-01-15T10:32:03.556Z,93432.00
2024-01-15T10:33:04.039Z,93430.00
2024-01-15T10:34:03.711Z,93431.00
2024-01-15T10:35:03.767Z,93428.00
2024-01-15T10:36:03.735Z,93431.00
2024-01-15T10:37:05.175Z,93431.00
2024-01-15T10:38:05.559Z,93426.00
2024-01-15T10:39:05.490Z,93423.00
2024-01-15T10:40:04.029Z,93424.00
2024-01-15T10:41:04.400Z,93430.00
2024-01-15T10:42:04.003Z,93427.00
2024-01-15T10:43:04.193Z,93423.00
2024-01-15T10:44:04.283Z,93421.00
2024-01-15T10:45:05.970Z,93414.00
2024-01-15T10:46:04.530Z,93413.00
2024-01-15T10:47:04.936Z,93413.00
2024-01-15T10:48:04.766Z,93413.00
2024-01-15T10:49:05.209Z,93417.00
2024-01-15T10:50:08.650Z,93415.00
2024-01-15T10:51:06.214Z,93412.00
2024-01-15T10:52:05.455Z,93409.00
2024-01-15T10:53:04.560Z,93405.00
2024-01-15T10:54:04.510Z,93404.00
2024-01-15T10:55:08.694Z,93399.00
2024-01-15T10:56:05.486Z,93395.00
2024-01-15T10:57:04.414Z,93393.00
2024-01-15T10:58:04.474Z,93394.00
2024-01-15T10:59:04.613Z,93392.00
2024-01-15T11:00:05.572Z,93395.00
2024-01-15T11:01:05.517Z,93393.00
2024-01-15T11:02:06.371Z,93390.00
2024-01-15T11:03:19.884Z,93388.00
2024-01-15T11:04:05.411Z,93385.00
2024-01-15T11:05:04.918Z,93383.00
2024-01-15T11:06:04.494Z,93381.00
2024-01-15T11:07:04.746Z,93383.00
2024-01-15T11:08:04.752Z,93383.00
2024-01-15T11:09:05.941Z,93384.00
2024-01-15T11:10:05.087Z,93380.00
2024-01-15T11:11:07.347Z,93375.00
2024-01-15T11:12:04.587Z,93375.00
2024-01-15T11:13:04.529Z,93379.00
2024-01-15T11:14:04.430Z,93376.00
2024-01-15T11:15:04.925Z,93377.00
2024-01-15T11:16:04.866Z,93378.00
2024-01-15T11:17:04.396Z,93376.00
2024-01-15T11:18:05.518Z,93375.00
2024-01-15T11:19:05.282Z,93375.00
2024-01-15T11:20:05.708Z,93368.00
2024-01-15T11:21:06.428Z,93367.00
2024-01-15T11:22:04.619Z,93365.00
2024-01-15T11:23:04.955Z,93363.00
2024-01-15T11:24:05.909Z,93365.00
2024-01-15T11:25:05.525Z,93368.00
2024-01-15T11:26:04.969Z,93364.00
2024-01-15T11:27:04.772Z,93363.00
2024-01-15T11:28:04.958Z,93366.00
2024-01-15T11:29:05.869Z,93367.00
2024-01-15T11:30:05.144Z,93367.00
2024-01-15T11:31:05.186Z,93368.00
2024-01-15T11:32:05.074Z,93367.00
2024-01-15T11:33:05.282Z,93363.00
2024-01-15T11:34:05.450Z,93362.00
2024-01-15T11:35:05.398Z,93359.00
2024-01-15T11:36:05.371Z,93353.00
2024-01-15T11:37:05.405Z,93354.00
2024-01-15T11:38:05.915Z,93355.00
2024-01-15T11:39:05.317Z,93354.00
2024-01-15T11:40:05.553Z,93352.00
2024-01-15T11:41:05.387Z,93353.00
2024-01-15T11:42:06.568Z,93351.00
2024-01-15T11:43:06.616Z,93350.00
2024-01-15T11:44:07.711Z,93346.00
2024-01-15T11:45:06.744Z,93344.00
2024-01-15T11:46:05.673Z,93340.00